sensor_id;sensor_type;location;lat;lon;timestamp;temperature;humidity
3226;DHT22;1625;49.884;8.666;2022-10-16T00:01:20;16.60;99.90
3226;DHT22;1625;49.884;8.666;2022-10-16T00:03:47;16.60;99.90
3226;DHT22;1625;49.884;8.666;2022-10-16T00:06:14;16.60;99.90
3226;DHT22;1625;49.884;8.666;2022-10-16T00:08:40;16.60;99.90
3226;DHT22;1625;49.884;8.666;2022-10-16T00:11:12;16.50;99.90
3226;DHT22;1625;49.884;8.666;2022-10-16T00:13:40;16.50;99.90
3226;DHT22;1625;49.884;8.666;2022-10-16T00:16:05;16.50;99.90
3226;DHT22;1625;49.884;8.666;2022-10-16T00:18:31;16.50;99.90
3226;DHT22;1625;49.884;8.666;2022-10-16T00:21:09;16.50;99.90
3226;DHT22;1625;49.884;8.666;2022-10-16T00:23:35;16.50;99.90
3226;DHT22;1625;49.884;8.666;2022-10-16T00:26:03;16.60;99.90
3226;DHT22;1625;49.884;8.666;2022-10-16T00:28:30;16.50;99.90
3226;DHT22;1625;49.884;8.666;2022-10-16T00:30:55;16.50;99.90
3226;DHT22;1625;49.884;8.666;2022-10-16T00:33:21;16.50;99.90
3226;DHT22;1625;49.884;8.666;2022-10-16T00:35:46;16.50;99.90
3226;DHT22;1625;49.884;8.666;2022-10-16T00:38:12;16.50;99.90
3226;DHT22;1625;49.884;8.666;2022-10-16T00:40:38;16.50;99.90
3226;DHT22;1625;49.884;8.666;2022-10-16T00:43:13;16.50;99.90
3226;DHT22;1625;49.884;8.666;2022-10-16T00:45:40;16.50;99.90
3226;DHT22;1625;49.884;8.666;2022-10-16T00:48:10;16.40;99.90
3226;DHT22;1625;49.884;8.666;2022-10-16T00:50:37;16.40;99.90
3226;DHT22;1625;49.884;8.666;2022-10-16T00:53:04;16.40;99.90
3226;DHT22;1625;49.884;8.666;2022-10-16T00:55:30;16.40;99.90
3226;DHT22;1625;49.884;8.666;2022-10-16T00:57:57;16.40;99.90
3226;DHT22;1625;49.884;8.666;2022-10-16T01:00:26;16.40;99.90
3226;DHT22;1625;49.884;8.666;2022-10-16T01:02:57;16.40;99.90
3226;DHT22;1625;49.884;8.666;2022-10-16T01:05:27;16.40;99.90
3226;DHT22;1625;49.884;8.666;2022-10-16T01:08:09;16.40;99.90
3226;DHT22;1625;49.884;8.666;2022-10-16T01:10:52;16.40;99.90
3226;DHT22;1625;49.884;8.666;2022-10-16T01:13:33;16.40;99.90
3226;DHT22;1625;49.884;8.666;2022-10-16T01:16:09;16.30;99.90
3226;DHT22;1625;49.884;8.666;2022-10-16T01:18:37;16.30;99.90
3226;DHT22;1625;49.884;8.666;2022-10-16T01:21:16;16.30;99.90
3226;DHT22;1625;49.884;8.666;2022-10-16T01:24:06;16.30;99.90
3226;DHT22;1625;49.884;8.666;2022-10-16T01:26:50;16.30;99.90
3226;DHT22;1625;49.884;8.666;2022-10-16T01:29:29;16.30;99.90
3226;DHT22;1625;49.884;8.666;2022-10-16T01:32:01;16.30;99.90
3226;DHT22;1625;49.884;8.666;2022-10-16T01:34:33;16.30;99.90
3226;DHT22;1625;49.884;8.666;2022-10-16T01:37:10;16.30;99.90
3226;DHT22;1625;49.884;8.666;2022-10-16T01:39:39;16.30;99.90
3226;DHT22;1625;49.884;8.666;2022-10-16T01:42:11;16.30;99.90
3226;DHT22;1625;49.884;8.666;2022-10-16T01:44:39;16.30;99.90
3226;DHT22;1625;49.884;8.666;2022-10-16T01:47:08;16.30;99.90
3226;DHT22;1625;49.884;8.666;2022-10-16T01:49:37;16.30;99.90
3226;DHT22;1625;49.884;8.666;2022-10-16T01:52:08;16.30;99.90
3226;DHT22;1625;49.884;8.666;2022-10-16T01:54:36;16.40;99.90
3226;DHT22;1625;49.884;8.666;2022-10-16T01:57:04;16.30;99.90
3226;DHT22;1625;49.884;8.666;2022-10-16T01:59:35;16.40;99.90
3226;DHT22;1625;49.884;8.666;2022-10-16T02:02:07;16.40;99.90
3226;DHT22;1625;49.884;8.666;2022-10-16T02:04:42;16.40;99.90
3226;DHT22;1625;49.884;8.666;2022-10-16T02:07:10;16.40;99.90
3226;DHT22;1625;49.884;8.666;2022-10-16T02:09:36;16.40;99.90
3226;DHT22;1625;49.884;8.666;2022-10-16T02:12:08;16.40;99.90
3226;DHT22;1625;49.884;8.666;2022-10-16T02:14:37;16.40;99.90
3226;DHT22;1625;49.884;8.666;2022-10-16T02:17:16;16.40;99.90
3226;DHT22;1625;49.884;8.666;2022-10-16T02:19:42;16.40;99.90
3226;DHT22;1625;49.884;8.666;2022-10-16T02:22:15;16.50;99.90
3226;DHT22;1625;49.884;8.666;2022-10-16T02:24:51;16.40;99.90
3226;DHT22;1625;49.884;8.666;2022-10-16T02:27:19;16.40;99.90
3226;DHT22;1625;49.884;8.666;2022-10-16T02:29:55;16.40;99.90
3226;DHT22;1625;49.884;8.666;2022-10-16T02:32:27;16.50;99.90
3226;DHT22;1625;49.884;8.666;2022-10-16T02:34:56;16.50;99.90
3226;DHT22;1625;49.884;8.666;2022-10-16T02:37:22;16.50;99.90
3226;DHT22;1625;49.884;8.666;2022-10-16T02:39:49;16.50;99.90
3226;DHT22;1625;49.884;8.666;2022-10-16T02:42:17;16.50;99.90
3226;DHT22;1625;49.884;8.666;2022-10-16T02:44:42;16.50;99.90
3226;DHT22;1625;49.884;8.666;2022-10-16T02:47:08;16.50;99.90
3226;DHT22;1625;49.884;8.666;2022-10-16T02:49:33;16.50;99.90
3226;DHT22;1625;49.884;8.666;2022-10-16T02:51:59;16.50;99.90
3226;DHT22;1625;49.884;8.666;2022-10-16T02:54:24;16.50;99.90
3226;DHT22;1625;49.884;8.666;2022-10-16T02:56:50;16.50;99.90
3226;DHT22;1625;49.884;8.666;2022-10-16T02:59:15;16.50;99.90
3226;DHT22;1625;49.884;8.666;2022-10-16T03:01:42;16.50;99.90
3226;DHT22;1625;49.884;8.666;2022-10-16T03:04:07;16.50;99.90
3226;DHT22;1625;49.884;8.666;2022-10-16T03:06:33;16.50;99.90
3226;DHT22;1625;49.884;8.666;2022-10-16T03:08:59;16.60;99.90
3226;DHT22;1625;49.884;8.666;2022-10-16T03:11:24;16.50;99.90
3226;DHT22;1625;49.884;8.666;2022-10-16T03:13:50;16.50;99.90
3226;DHT22;1625;49.884;8.666;2022-10-16T03:16:15;16.50;99.90
3226;DHT22;1625;49.884;8.666;2022-10-16T03:18:41;16.50;99.90
3226;DHT22;1625;49.884;8.666;2022-10-16T03:21:06;16.50;99.90
3226;DHT22;1625;49.884;8.666;2022-10-16T03:23:32;16.50;99.90
3226;DHT22;1625;49.884;8.666;2022-10-16T03:25:57;16.50;99.90
3226;DHT22;1625;49.884;8.666;2022-10-16T03:28:23;16.50;99.90
3226;DHT22;1625;49.884;8.666;2022-10-16T03:30:48;16.50;99.90
3226;DHT22;1625;49.884;8.666;2022-10-16T03:33:14;16.50;99.90
3226;DHT22;1625;49.884;8.666;2022-10-16T03:35:39;16.50;99.90
3226;DHT22;1625;49.884;8.666;2022-10-16T03:38:05;16.60;99.90
3226;DHT22;1625;49.884;8.666;2022-10-16T03:40:30;16.60;99.90
3226;DHT22;1625;49.884;8.666;2022-10-16T03:42:57;16.60;99.90
3226;DHT22;1625;49.884;8.666;2022-10-16T03:45:24;16.60;99.90
3226;DHT22;1625;49.884;8.666;2022-10-16T03:47:49;16.50;99.90
3226;DHT22;1625;49.884;8.666;2022-10-16T03:50:15;16.60;99.90
3226;DHT22;1625;49.884;8.666;2022-10-16T03:52:40;16.60;99.90
3226;DHT22;1625;49.884;8.666;2022-10-16T03:55:06;16.60;99.90
3226;DHT22;1625;49.884;8.666;2022-10-16T03:57:32;16.60;99.90
3226;DHT22;1625;49.884;8.666;2022-10-16T03:59:58;16.60;99.90
3226;DHT22;1625;49.884;8.666;2022-10-16T04:02:23;16.60;99.90
3226;DHT22;1625;49.884;8.666;2022-10-16T04:04:49;16.60;99.90
3226;DHT22;1625;49.884;8.666;2022-10-16T04:07:15;16.60;99.90
3226;DHT22;1625;49.884;8.666;2022-10-16T04:09:40;16.60;99.90
3226;DHT22;1625;49.884;8.666;2022-10-16T04:12:06;16.60;99.90
3226;DHT22;1625;49.884;8.666;2022-10-16T04:14:31;16.60;99.90
3226;DHT22;1625;49.884;8.666;2022-10-16T04:16:57;16.50;99.90
3226;DHT22;1625;49.884;8.666;2022-10-16T04:19:22;16.60;99.90
3226;DHT22;1625;49.884;8.666;2022-10-16T04:21:48;16.50;99.90
3226;DHT22;1625;49.884;8.666;2022-10-16T04:24:13;16.50;99.90
3226;DHT22;1625;49.884;8.666;2022-10-16T04:26:39;16.50;99.90
3226;DHT22;1625;49.884;8.666;2022-10-16T04:29:04;16.50;99.90
3226;DHT22;1625;49.884;8.666;2022-10-16T04:31:30;16.50;99.90
3226;DHT22;1625;49.884;8.666;2022-10-16T06:24:56;16.40;99.90
3226;DHT22;1625;49.884;8.666;2022-10-16T06:29:48;16.50;99.90
3226;DHT22;1625;49.884;8.666;2022-10-16T06:39:36;16.40;99.90
3226;DHT22;1625;49.884;8.666;2022-10-16T06:45:07;16.40;99.90
3226;DHT22;1625;49.884;8.666;2022-10-16T06:49:59;16.60;99.90
3226;DHT22;1625;49.884;8.666;2022-10-16T06:54:53;16.50;99.90
3226;DHT22;1625;49.884;8.666;2022-10-16T07:04:50;16.60;99.90
3226;DHT22;1625;49.884;8.666;2022-10-16T07:22:48;17.00;99.90
3226;DHT22;1625;49.884;8.666;2022-10-16T07:25:15;17.00;99.90
3226;DHT22;1625;49.884;8.666;2022-10-16T07:27:41;17.00;99.90
3226;DHT22;1625;49.884;8.666;2022-10-16T07:42:45;17.30;99.90
3226;DHT22;1625;49.884;8.666;2022-10-16T07:58:47;17.30;99.90
3226;DHT22;1625;49.884;8.666;2022-10-16T08:09:37;17.50;99.90
3226;DHT22;1625;49.884;8.666;2022-10-16T08:12:23;17.50;99.90
3226;DHT22;1625;49.884;8.666;2022-10-16T08:15:11;18.40;99.90
3226;DHT22;1625;49.884;8.666;2022-10-16T08:18:50;17.50;99.90
3226;DHT22;1625;49.884;8.666;2022-10-16T08:22:45;17.50;99.90
3226;DHT22;1625;49.884;8.666;2022-10-16T08:26:07;17.50;99.90
3226;DHT22;1625;49.884;8.666;2022-10-16T14:31:59;20.00;99.90
3226;DHT22;1625;49.884;8.666;2022-10-16T14:34:29;20.00;99.90
3226;DHT22;1625;49.884;8.666;2022-10-16T14:37:07;20.10;99.90
3226;DHT22;1625;49.884;8.666;2022-10-16T14:39:35;20.00;99.90
3226;DHT22;1625;49.884;8.666;2022-10-16T14:42:00;19.90;99.90
3226;DHT22;1625;49.884;8.666;2022-10-16T14:44:30;20.80;99.90
3226;DHT22;1625;49.884;8.666;2022-10-16T14:46:57;19.90;99.90
3226;DHT22;1625;49.884;8.666;2022-10-16T14:49:23;19.80;99.90
3226;DHT22;1625;49.884;8.666;2022-10-16T14:51:49;19.80;99.90
3226;DHT22;1625;49.884;8.666;2022-10-16T14:54:17;19.70;99.90
3226;DHT22;1625;49.884;8.666;2022-10-16T14:56:52;19.70;99.90
3226;DHT22;1625;49.884;8.666;2022-10-16T14:59:41;19.70;99.90
3226;DHT22;1625;49.884;8.666;2022-10-16T15:04:44;19.70;99.90
3226;DHT22;1625;49.884;8.666;2022-10-16T15:07:38;19.80;99.90
3226;DHT22;1625;49.884;8.666;2022-10-16T15:24:13;19.90;99.90
3226;DHT22;1625;49.884;8.666;2022-10-16T16:16:56;19.20;99.90
3226;DHT22;1625;49.884;8.666;2022-10-16T17:34:36;18.30;99.90
3226;DHT22;1625;49.884;8.666;2022-10-16T17:38:26;18.30;99.90
3226;DHT22;1625;49.884;8.666;2022-10-16T17:45:30;18.10;99.90
3226;DHT22;1625;49.884;8.666;2022-10-16T17:48:59;18.10;99.90
3226;DHT22;1625;49.884;8.666;2022-10-16T17:52:25;18.00;99.90
3226;DHT22;1625;49.884;8.666;2022-10-16T17:55:49;18.00;99.90
3226;DHT22;1625;49.884;8.666;2022-10-16T18:02:35;17.90;99.90
